createdAt,value
2017-06-02T00:00:37.894Z,1020.5
2017-06-02T00:01:40.992Z,1020.5
2017-06-02T00:02:43.335Z,1020.5
2017-06-02T00:03:46.050Z,1020.5
2017-06-02T00:04:48.898Z,1020.5
2017-06-02T00:05:51.752Z,1020.4
2017-06-02T00:06:54.898Z,1020.5
2017-06-02T00:07:57.474Z,1020.5
2017-06-02T00:08:59.818Z,1020.5
2017-06-02T00:10:02.662Z,1020.5
2017-06-02T00:11:05.377Z,1020.5
2017-06-02T00:12:08.475Z,1020.5
2017-06-02T00:13:11.188Z,1020.4
2017-06-02T00:14:14.032Z,1020.5
2017-06-02T00:15:16.373Z,1020.5
2017-06-02T00:16:19.588Z,1020.4
2017-06-02T00:17:22.413Z,1020.4
2017-06-02T00:18:24.755Z,1020.4
2017-06-02T00:19:27.610Z,1020.4
2017-06-02T00:20:30.454Z,1020.4
2017-06-02T00:21:33.304Z,1020.4
2017-06-02T00:22:36.400Z,1020.4
2017-06-02T00:23:38.609Z,1020.3
2017-06-02T00:24:41.321Z,1020.3
2017-06-02T00:25:44.170Z,1020.3
2017-06-02T00:26:46.885Z,1020.3
2017-06-02T00:27:50.040Z,1020.3
2017-06-02T00:28:52.389Z,1020.3
2017-06-02T00:29:55.236Z,1020.3
2017-06-02T00:30:58.081Z,1020.2
2017-06-02T00:32:00.581Z,1020.2
2017-06-02T00:33:03.545Z,1020.2
2017-06-02T00:34:06.388Z,1020.2
2017-06-02T00:35:09.108Z,1020.2
2017-06-02T00:36:11.819Z,1020.2
2017-06-02T00:37:14.668Z,1020.2
2017-06-02T00:38:17.364Z,1020.2
2017-06-02T00:39:20.209Z,1020.2
2017-06-02T00:40:22.553Z,1020.2
2017-06-02T00:41:25.396Z,1020.2
2017-06-02T00:42:28.482Z,1020.2
2017-06-02T00:43:31.496Z,1020.2
2017-06-02T00:44:33.843Z,1020.2
2017-06-02T00:45:36.690Z,1020.2
2017-06-02T00:46:39.032Z,1020.3
2017-06-02T00:47:41.880Z,1020.2
2017-06-02T00:48:45.218Z,1020.2
2017-06-02T00:49:47.564Z,1020.2
2017-06-02T00:50:50.407Z,1020.2
2017-06-02T00:51:53.115Z,1020.2
2017-06-02T00:52:55.964Z,1020.2
2017-06-02T00:53:58.927Z,1020.2
2017-06-02T00:55:01.501Z,1020.2
2017-06-02T00:56:03.848Z,1020.1
2017-06-02T00:57:06.694Z,1020.1
2017-06-02T00:58:09.541Z,1020.2
2017-06-02T00:59:12.418Z,1020.2
2017-06-02T01:00:15.265Z,1020.2
2017-06-02T01:01:17.840Z,1020.2
2017-06-02T01:02:20.546Z,1020.1
2017-06-02T01:03:23.252Z,1020.1
2017-06-02T01:04:26.397Z,1020.1
2017-06-02T01:05:28.735Z,1020.1
2017-06-02T01:06:31.579Z,1020.1
2017-06-02T01:07:34.360Z,1020.1
2017-06-02T01:08:37.216Z,1020.1
2017-06-02T01:09:39.812Z,1020.1
2017-06-02T01:10:42.663Z,1020
2017-06-02T01:11:45.509Z,1020
2017-06-02T01:12:47.908Z,1020.1
2017-06-02T01:13:50.752Z,1020
2017-06-02T01:14:53.766Z,1020
2017-06-02T01:15:56.165Z,1020
2017-06-02T01:16:59.020Z,1020
2017-06-02T01:18:01.867Z,1020
2017-06-02T01:19:04.581Z,1020
2017-06-02T01:20:07.728Z,1020
2017-06-02T01:21:09.935Z,1019.9
2017-06-02T01:22:12.782Z,1019.9
2017-06-02T01:23:15.626Z,1019.9
2017-06-02T01:24:18.343Z,1020
2017-06-02T01:25:21.437Z,1019.9
2017-06-02T01:26:23.572Z,1019.9
2017-06-02T01:27:26.283Z,1019.9
2017-06-02T01:28:29.129Z,1019.9
2017-06-02T01:29:31.975Z,1019.9
2017-06-02T01:30:35.125Z,1019.9
2017-06-02T01:31:37.495Z,1019.9
2017-06-02T01:32:40.343Z,1019.9
2017-06-02T01:33:43.054Z,1019.9
2017-06-02T01:34:45.903Z,1019.9
2017-06-02T01:35:48.866Z,1019.9
2017-06-02T01:36:51.207Z,1019.9
2017-06-02T01:37:54.057Z,1019.9
2017-06-02T01:38:56.764Z,1019.9
2017-06-02T01:39:59.608Z,1019.9
2017-06-02T01:41:02.205Z,1019.9
2017-06-02T01:42:05.055Z,1019.8
2017-06-02T01:43:07.636Z,1019.9
2017-06-02T01:44:10.361Z,1019.8
2017-06-02T01:45:13.073Z,1019.8
2017-06-02T01:46:16.036Z,1019.8
2017-06-02T01:47:18.746Z,1019.9
2017-06-02T01:48:21.094Z,1019.9
2017-06-02T01:49:23.809Z,1019.9
2017-06-02T01:50:26.653Z,1019.9
2017-06-02T01:51:29.749Z,1019.9
2017-06-02T01:52:32.092Z,1019.9
2017-06-02T01:53:34.808Z,1019.9
2017-06-02T01:54:37.652Z,1019.9
2017-06-02T01:55:40.363Z,1019.9
2017-06-02T01:56:43.512Z,1019.9
2017-06-02T01:57:45.854Z,1019.9
2017-06-02T01:58:48.698Z,1019.9
2017-06-02T01:59:51.406Z,1019.9
2017-06-02T02:00:54.254Z,1019.9
2017-06-02T02:01:57.406Z,1020
2017-06-02T02:02:59.753Z,1019.9
2017-06-02T02:04:02.602Z,1019.9
2017-06-02T02:05:04.943Z,1019.9
2017-06-02T02:06:07.784Z,1019.9
2017-06-02T02:08:13.538Z,1019.8
2017-06-02T02:09:15.880Z,1019.8
2017-06-02T02:10:18.593Z,1019.8
2017-06-02T02:11:21.303Z,1019.8
2017-06-02T02:12:24.150Z,1019.8
2017-06-02T02:13:27.119Z,1019.8
2017-06-02T02:14:29.530Z,1019.8
2017-06-02T02:15:32.379Z,1019.8
2017-06-02T02:16:35.085Z,1019.8
2017-06-02T02:17:37.929Z,1019.8
2017-06-02T02:18:41.025Z,1019.8
2017-06-02T02:19:43.368Z,1019.8
2017-06-02T02:20:46.215Z,1019.8
2017-06-02T02:21:49.068Z,1019.8
2017-06-02T02:22:51.413Z,1019.7
2017-06-02T02:23:54.509Z,1019.7
2017-06-02T02:24:57.217Z,1019.7
2017-06-02T02:25:59.558Z,1019.7
2017-06-02T02:27:02.406Z,1019.7
2017-06-02T02:28:05.481Z,1019.7
2017-06-02T02:29:08.509Z,1019.8
2017-06-02T02:30:10.846Z,1019.8
2017-06-02T02:31:13.555Z,1019.7
2017-06-02T02:32:16.409Z,1019.8
2017-06-02T02:33:19.123Z,1019.7
2017-06-02T02:34:21.718Z,1019.8
2017-06-02T02:35:24.291Z,1019.7
2017-06-02T02:36:27.143Z,1019.8
2017-06-02T02:37:29.996Z,1019.7
2017-06-02T02:38:32.707Z,1019.8
2017-06-02T02:39:35.805Z,1019.7
2017-06-02T02:40:38.149Z,1019.8
2017-06-02T02:41:41.000Z,1019.7
2017-06-02T02:42:43.347Z,1019.7
2017-06-02T02:43:46.434Z,1019.8
2017-06-02T02:44:49.445Z,1019.7
2017-06-02T02:45:51.787Z,1019.7
2017-06-02T02:46:54.635Z,1019.8
2017-06-02T02:47:56.982Z,1019.7
2017-06-02T02:48:59.820Z,1019.7
2017-06-02T02:50:02.917Z,1019.7
2017-06-02T02:51:05.123Z,1019.7
2017-06-02T02:52:07.832Z,1019.7
2017-06-02T02:53:10.682Z,1019.8
2017-06-02T02:54:13.765Z,1019.7
2017-06-02T02:55:16.418Z,1019.7
2017-06-02T02:56:19.131Z,1019.8
2017-06-02T02:57:21.468Z,1019.8
2017-06-02T02:58:24.549Z,1019.7
2017-06-02T02:59:27.398Z,1019.7
2017-06-02T03:00:30.361Z,1019.7
2017-06-02T03:01:32.709Z,1019.8
2017-06-02T03:02:35.423Z,1019.7
2017-06-02T03:03:38.267Z,1019.7
2017-06-02T03:04:40.608Z,1019.7
2017-06-02T03:05:43.704Z,1019.7
2017-06-02T03:06:46.042Z,1019.7
2017-06-02T03:07:48.891Z,1019.7
2017-06-02T03:08:51.743Z,1019.6
2017-06-02T03:09:54.454Z,1019.6
2017-06-02T03:10:57.552Z,1019.6
2017-06-02T03:11:59.891Z,1019.6
2017-06-02T03:13:02.739Z,1019.6
2017-06-02T03:15:07.994Z,1019.6
2017-06-02T03:16:11.193Z,1019.7
2017-06-02T03:17:13.470Z,1019.6
2017-06-02T03:18:16.178Z,1019.6
2017-06-02T03:20:21.806Z,1019.6
2017-06-02T03:21:24.636Z,1019.6
2017-06-02T03:22:27.350Z,1019.5
2017-06-02T03:23:30.062Z,1019.5
2017-06-02T03:24:32.905Z,1019.5
2017-06-02T03:25:35.251Z,1019.5
2017-06-02T03:26:38.351Z,1019.5
2017-06-02T03:27:40.693Z,1019.5
2017-06-02T03:28:43.537Z,1019.5
2017-06-02T03:29:46.244Z,1019.5
2017-06-02T03:30:49.092Z,1019.5
2017-06-02T03:31:51.918Z,1019.5
2017-06-02T03:32:54.629Z,1019.5
2017-06-02T03:33:57.471Z,1019.6
2017-06-02T03:34:59.812Z,1019.5
2017-06-02T03:36:02.672Z,1019.6
2017-06-02T03:37:05.645Z,1019.5
2017-06-02T03:38:08.354Z,1019.5
2017-06-02T03:39:11.062Z,1019.5
2017-06-02T03:40:13.406Z,1019.6
2017-06-02T03:41:16.251Z,1019.5
2017-06-02T03:42:19.347Z,1019.5
2017-06-02T03:43:21.681Z,1019.5
2017-06-02T03:44:24.529Z,1019.5
2017-06-02T03:45:27.433Z,1019.5
2017-06-02T03:46:29.778Z,1019.5
2017-06-02T03:47:32.872Z,1019.5
2017-06-02T03:48:35.215Z,1019.5
2017-06-02T03:49:38.058Z,1019.6
2017-06-02T03:50:40.903Z,1019.6
2017-06-02T03:51:43.746Z,1019.6
2017-06-02T03:52:46.847Z,1019.6
2017-06-02T03:53:49.051Z,1019.6
2017-06-02T03:54:51.759Z,1019.6
2017-06-02T03:55:54.467Z,1019.6
2017-06-02T03:56:57.549Z,1019.6
2017-06-02T03:58:00.513Z,1019.6
2017-06-02T03:59:02.859Z,1019.6
2017-06-02T04:00:05.707Z,1019.6
2017-06-02T04:01:08.419Z,1019.6
2017-06-02T04:02:11.266Z,1019.6
2017-06-02T04:03:14.367Z,1019.6
2017-06-02T04:04:16.572Z,1019.5
2017-06-02T04:05:19.147Z,1019.6
2017-06-02T04:06:21.991Z,1019.6
2017-06-02T04:07:24.840Z,1019.6
2017-06-02T04:08:27.940Z,1019.6
2017-06-02T04:09:30.297Z,1019.5
2017-06-02T04:10:33.143Z,1019.6
2017-06-02T04:11:35.990Z,1019.6
2017-06-02T04:12:38.835Z,1019.5
2017-06-02T04:13:41.931Z,1019.5
2017-06-02T04:14:44.271Z,1019.5
2017-06-02T04:15:47.114Z,1019.6
2017-06-02T04:16:49.959Z,1019.6
2017-06-02T04:17:52.300Z,1019.6
2017-06-02T04:19:58.175Z,1019.6
2017-06-02T04:21:01.021Z,1019.6
2017-06-02T04:22:03.865Z,1019.6
2017-06-02T04:23:06.573Z,1019.6
2017-06-02T04:24:09.418Z,1019.5
2017-06-02T04:25:12.248Z,1019.5
2017-06-02T04:27:17.372Z,1019.5
2017-06-02T04:28:20.079Z,1019.5
2017-06-02T04:29:22.924Z,1019.5
2017-06-02T04:30:26.016Z,1019.6
2017-06-02T04:31:28.857Z,1019.6
2017-06-02T04:32:31.437Z,1019.6
2017-06-02T04:33:34.276Z,1019.6
2017-06-02T04:34:37.120Z,1019.5
2017-06-02T04:35:40.236Z,1019.6
2017-06-02T04:36:42.578Z,1019.5
2017-06-02T04:37:45.286Z,1019.6
2017-06-02T04:38:48.133Z,1019.5
2017-06-02T04:39:50.709Z,1019.5
2017-06-02T04:40:54.180Z,1019.5
2017-06-02T04:41:56.386Z,1019.5
2017-06-02T04:42:59.227Z,1019.5
2017-06-02T04:44:01.935Z,1019.5
2017-06-02T04:45:05.156Z,1019.6
2017-06-02T04:46:07.813Z,1019.6
2017-06-02T04:47:10.526Z,1019.6
2017-06-02T04:48:13.096Z,1019.6
2017-06-02T04:49:15.938Z,1019.5
2017-06-02T04:50:18.781Z,1019.6
2017-06-02T04:51:21.880Z,1019.5
2017-06-02T04:53:27.142Z,1019.5
2017-06-02T04:54:29.986Z,1019.5
2017-06-02T04:55:33.205Z,1019.5
2017-06-02T04:56:36.164Z,1019.5
2017-06-02T04:57:38.872Z,1019.5
2017-06-02T04:58:41.214Z,1019.5
2017-06-02T04:59:44.064Z,1019.5
2017-06-02T05:00:46.906Z,1019.6
2017-06-02T05:01:50.009Z,1019.6
2017-06-02T05:02:52.855Z,1019.6
2017-06-02T05:03:55.703Z,1019.6
2017-06-02T05:04:58.417Z,1019.6
2017-06-02T05:06:01.267Z,1019.6
2017-06-02T05:07:04.365Z,1019.6
2017-06-02T05:08:06.702Z,1019.6
2017-06-02T05:09:09.409Z,1019.6
2017-06-02T05:10:12.491Z,1019.6
2017-06-02T05:11:15.336Z,1019.5
2017-06-02T05:12:18.354Z,1019.6
2017-06-02T05:13:20.701Z,1019.6
2017-06-02T05:14:23.912Z,1019.6
2017-06-02T05:16:29.669Z,1019.6
2017-06-02T05:17:32.682Z,1019.6
2017-06-02T05:18:34.889Z,1019.6
2017-06-02T05:19:38.103Z,1019.6
2017-06-02T05:20:40.960Z,1019.6
2017-06-02T05:21:43.805Z,1019.6
2017-06-02T05:22:46.913Z,1019.7
2017-06-02T05:23:49.256Z,1019.6
2017-06-02T05:24:52.103Z,1019.6
2017-06-02T05:25:54.814Z,1019.6
2017-06-02T05:26:58.030Z,1019.7
2017-06-02T05:28:01.130Z,1019.6
2017-06-02T05:29:03.339Z,1019.6
2017-06-02T05:30:06.421Z,1019.7
2017-06-02T05:31:09.140Z,1019.7
2017-06-02T05:32:12.350Z,1019.7
2017-06-02T05:33:15.316Z,1019.7
2017-06-02T05:34:17.656Z,1019.7
2017-06-02T05:35:20.499Z,1019.6
2017-06-02T05:36:23.577Z,1019.7
2017-06-02T05:37:26.296Z,1019.7
2017-06-02T05:38:29.494Z,1019.7
2017-06-02T05:40:34.758Z,1019.6
2017-06-02T05:41:37.602Z,1019.6
2017-06-02T05:42:40.445Z,1019.6
2017-06-02T05:43:43.909Z,1019.6
2017-06-02T05:44:46.618Z,1019.7
2017-06-02T05:46:52.238Z,1019.7
2017-06-02T05:47:55.082Z,1019.7
2017-06-02T05:48:58.107Z,1019.7
2017-06-02T05:50:00.447Z,1019.7
2017-06-02T05:51:03.660Z,1019.7
2017-06-02T05:52:06.503Z,1019.7
2017-06-02T05:53:09.215Z,1019.7
2017-06-02T05:54:12.179Z,1019.7
2017-06-02T05:55:14.891Z,1019.7
2017-06-02T05:56:17.738Z,1019.7
2017-06-02T05:57:20.576Z,1019.7
2017-06-02T05:58:23.423Z,1019.7
2017-06-02T05:59:26.523Z,1019.7
2017-06-02T06:00:29.369Z,1019.7
2017-06-02T06:01:32.079Z,1019.7
2017-06-02T06:02:35.288Z,1019.7
2017-06-02T06:03:38.133Z,1019.6
2017-06-02T06:04:41.095Z,1019.6
2017-06-02T06:05:43.937Z,1019.6
2017-06-02T06:06:46.644Z,1019.7
2017-06-02T06:07:49.489Z,1019.6
2017-06-02T06:08:52.339Z,1019.6
2017-06-02T06:09:55.434Z,1019.6
2017-06-02T06:10:58.144Z,1019.7
2017-06-02T06:12:01.013Z,1019.7
2017-06-02T06:13:03.786Z,1019.7
2017-06-02T06:14:06.763Z,1019.7
2017-06-02T06:15:09.861Z,1019.7
2017-06-02T06:16:12.572Z,1019.7
2017-06-02T06:17:15.418Z,1019.7
2017-06-02T06:18:18.128Z,1019.7
2017-06-02T06:19:20.903Z,1019.7
2017-06-02T06:20:24.234Z,1019.7
2017-06-02T06:21:26.811Z,1019.7
2017-06-02T06:22:29.651Z,1019.7
2017-06-02T06:23:32.499Z,1019.7
2017-06-02T06:24:35.344Z,1019.7
2017-06-02T06:25:38.444Z,1019.7
2017-06-02T06:26:41.286Z,1019.7
2017-06-02T06:27:44.130Z,1019.7
2017-06-02T06:28:46.980Z,1019.7
2017-06-02T06:29:49.824Z,1019.7
2017-06-02T06:30:52.789Z,1019.8
2017-06-02T06:31:55.500Z,1019.8
2017-06-02T06:32:58.342Z,1019.7
2017-06-02T06:34:01.187Z,1019.7
2017-06-02T06:35:04.035Z,1019.8
2017-06-02T06:36:07.130Z,1019.8
2017-06-02T06:37:10.206Z,1019.8
2017-06-02T06:38:13.056Z,1019.7
2017-06-02T06:40:18.818Z,1019.6
2017-06-02T06:41:21.785Z,1019.6
2017-06-02T06:42:24.630Z,1019.6
2017-06-02T06:43:27.210Z,1019.6
2017-06-02T06:44:30.063Z,1019.6
2017-06-02T06:45:32.968Z,1019.7
2017-06-02T06:46:36.065Z,1019.7
2017-06-02T06:47:38.975Z,1019.6
2017-06-02T06:48:41.687Z,1019.7
2017-06-02T06:49:44.531Z,1019.6
2017-06-02T06:50:47.750Z,1019.6
2017-06-02T06:51:50.714Z,1019.6
2017-06-02T06:52:53.559Z,1019.6
2017-06-02T06:53:56.271Z,1019.6
2017-06-02T06:54:59.481Z,1019.6
2017-06-02T06:56:02.327Z,1019.6
2017-06-02T06:57:05.429Z,1019.6
2017-06-02T06:58:07.769Z,1019.6
2017-06-02T06:59:11.014Z,1019.7
2017-06-02T07:00:13.593Z,1019.6
2017-06-02T07:01:16.944Z,1019.6
2017-06-02T07:02:20.038Z,1019.6
2017-06-02T07:02:50.167Z,1019.6
2017-06-02T07:03:22.678Z,1019.7
2017-06-02T07:04:25.518Z,1019.6
2017-06-02T07:05:28.359Z,1019.6
2017-06-02T07:06:31.072Z,1019.6
2017-06-02T07:07:34.677Z,1019.6
2017-06-02T07:08:37.018Z,1019.6
2017-06-02T07:09:39.867Z,1019.6
2017-06-02T07:11:46.125Z,1019.7
2017-06-02T07:12:49.221Z,1019.7
2017-06-02T07:13:51.930Z,1019.7
2017-06-02T07:14:54.786Z,1019.7
2017-06-02T07:15:57.630Z,1019.7
2017-06-02T07:17:00.472Z,1019.7
2017-06-02T07:18:03.618Z,1019.7
2017-06-02T07:19:06.459Z,1019.6
2017-06-02T07:20:09.172Z,1019.7
2017-06-02T07:21:12.386Z,1019.7
2017-06-02T07:22:15.093Z,1019.7
2017-06-02T07:23:18.240Z,1019.6
2017-06-02T07:24:21.084Z,1019.6
2017-06-02T07:25:23.797Z,1019.7
2017-06-02T07:26:27.152Z,1019.6
2017-06-02T07:27:29.861Z,1019.7
2017-06-02T07:28:33.021Z,1019.7
2017-06-02T07:29:35.868Z,1019.6
2017-06-02T07:30:38.711Z,1019.7
2017-06-02T07:32:44.340Z,1019.6
2017-06-02T07:33:47.812Z,1019.6
2017-06-02T07:34:50.524Z,1019.6
2017-06-02T07:35:53.237Z,1019.6
2017-06-02T07:37:59.365Z,1019.6
2017-06-02T07:39:02.330Z,1019.6
2017-06-02T07:40:05.175Z,1019.6
2017-06-02T07:41:08.041Z,1019.5
2017-06-02T07:42:10.892Z,1019.6
2017-06-02T07:43:13.971Z,1019.6
2017-06-02T07:44:17.067Z,1019.6
2017-06-02T07:45:19.913Z,1019.6
2017-06-02T07:46:22.631Z,1019.6
2017-06-02T07:47:25.856Z,1019.6
2017-06-02T07:48:28.700Z,1019.6
2017-06-02T07:49:31.802Z,1019.6
2017-06-02T07:50:34.648Z,1019.6
2017-06-02T07:51:37.365Z,1019.6
2017-06-02T07:53:43.628Z,1019.6
2017-06-02T07:54:46.725Z,1019.6
2017-06-02T07:55:49.567Z,1019.6
2017-06-02T07:56:52.408Z,1019.6
2017-06-02T07:57:55.252Z,1019.6
2017-06-02T07:58:58.097Z,1019.6
2017-06-02T08:00:01.193Z,1019.6
2017-06-02T08:01:04.041Z,1019.5
2017-06-02T08:02:06.890Z,1019.5
2017-06-02T08:03:10.241Z,1019.5
2017-06-02T08:04:12.953Z,1019.6
2017-06-02T08:05:16.055Z,1019.5
2017-06-02T08:06:18.903Z,1019.5
2017-06-02T08:07:21.766Z,1019.5
2017-06-02T08:08:24.983Z,1019.4
2017-06-02T08:09:27.704Z,1019.5
2017-06-02T08:10:30.800Z,1019.5
2017-06-02T08:11:33.647Z,1019.5
2017-06-02T08:12:36.358Z,1019.5
2017-06-02T08:13:39.705Z,1019.5
2017-06-02T08:14:42.413Z,1019.5
2017-06-02T08:15:45.885Z,1019.4
2017-06-02T08:16:48.227Z,1019.4
2017-06-02T08:17:51.072Z,1019.5
2017-06-02T08:18:54.420Z,1019.5
2017-06-02T08:19:57.265Z,1019.4
2017-06-02T08:21:00.364Z,1019.4
2017-06-02T08:22:03.073Z,1019.4
2017-06-02T08:23:06.157Z,1019.4
2017-06-02T08:24:08.929Z,1019.4
2017-06-02T08:25:11.774Z,1019.4
2017-06-02T08:26:14.923Z,1019.4
2017-06-02T08:27:17.770Z,1019.4
2017-06-02T08:28:20.614Z,1019.4
2017-06-02T08:30:26.741Z,1019.4
2017-06-02T08:31:29.841Z,1019.4
2017-06-02T08:32:32.687Z,1019.3
2017-06-02T08:33:35.528Z,1019.3
2017-06-02T08:34:38.369Z,1019.3
2017-06-02T08:35:41.719Z,1019.3
2017-06-02T08:36:44.681Z,1019.3
2017-06-02T08:37:47.523Z,1019.3
2017-06-02T08:38:50.368Z,1019.3
2017-06-02T08:40:56.496Z,1019.3
2017-06-02T08:43:02.560Z,1019.4
2017-06-02T08:44:05.409Z,1019.3
2017-06-02T08:45:08.123Z,1019.3
2017-06-02T08:46:11.337Z,1019.3
2017-06-02T08:47:14.050Z,1019.3
2017-06-02T08:48:17.651Z,1019.3
2017-06-02T08:49:19.993Z,1019.3
2017-06-02T08:50:23.344Z,1019.4
2017-06-02T08:51:26.054Z,1019.2
2017-06-02T08:52:28.900Z,1019.3
2017-06-02T08:53:32.365Z,1019.3
2017-06-02T08:54:35.216Z,1019.3
2017-06-02T08:55:37.923Z,1019.3
2017-06-02T08:56:40.767Z,1019.3
2017-06-02T08:57:43.982Z,1019.3
2017-06-02T08:58:47.128Z,1019.2
2017-06-02T08:59:49.969Z,1019.3
2017-06-02T09:00:52.814Z,1019.3
2017-06-02T09:01:55.663Z,1019.3
2017-06-02T09:02:59.014Z,1019.3
2017-06-02T09:04:02.112Z,1019.3
2017-06-02T09:05:04.957Z,1019.3
2017-06-02T09:06:07.806Z,1019.2
2017-06-02T09:07:10.517Z,1019.3
2017-06-02T09:08:13.744Z,1019.3
2017-06-02T09:09:16.845Z,1019.2
2017-06-02T09:10:19.695Z,1019.3
2017-06-02T09:11:22.536Z,1019.3
2017-06-02T09:12:25.380Z,1019.2
2017-06-02T09:13:28.732Z,1019.2
2017-06-02T09:14:31.701Z,1019.2
2017-06-02T09:15:34.547Z,1019.2
2017-06-02T09:16:37.403Z,1019.2
2017-06-02T09:17:40.252Z,1019.2
2017-06-02T09:18:43.604Z,1019.3
2017-06-02T09:19:46.569Z,1019.3
2017-06-02T09:20:49.434Z,1019.3
2017-06-02T09:21:52.295Z,1019.3
2017-06-02T09:22:55.142Z,1019.2
2017-06-02T09:23:58.362Z,1019.3
2017-06-02T09:25:01.463Z,1019.3
2017-06-02T09:26:04.313Z,1019.3
2017-06-02T09:27:07.161Z,1019.3
2017-06-02T09:28:10.106Z,1019.3
2017-06-02T09:29:13.184Z,1019.3
2017-06-02T09:30:16.285Z,1019.3
2017-06-02T09:31:19.188Z,1019.3
2017-06-02T09:32:22.269Z,1019.3
2017-06-02T09:33:25.106Z,1019.3
2017-06-02T09:34:28.185Z,1019.2
2017-06-02T09:35:31.281Z,1019.2
2017-06-02T09:36:34.135Z,1019.3
2017-06-02T09:38:40.318Z,1019.2
2017-06-02T09:39:43.028Z,1019.2
2017-06-02T09:40:46.679Z,1019.2
2017-06-02T09:41:49.028Z,1019.2
2017-06-02T09:42:52.379Z,1019.2
2017-06-02T09:43:55.228Z,1019.1
2017-06-02T09:44:57.945Z,1019.1
2017-06-02T09:46:01.411Z,1019.1
2017-06-02T09:47:04.257Z,1019.1
2017-06-02T09:48:06.970Z,1019.1
2017-06-02T09:49:10.183Z,1019.1
2017-06-02T09:50:13.032Z,1019.1
2017-06-02T09:52:19.548Z,1019.1
2017-06-02T09:53:22.254Z,1019.1
2017-06-02T09:54:25.332Z,1019.1
2017-06-02T09:55:28.178Z,1019.1
2017-06-02T09:56:31.025Z,1019.1
2017-06-02T09:57:34.621Z,1019.1
2017-06-02T09:58:36.961Z,1019.1
2017-06-02T09:59:40.307Z,1019.1
2017-06-02T10:01:46.082Z,1019.1
2017-06-02T10:02:49.552Z,1019.1
2017-06-02T10:03:51.892Z,1019.1
2017-06-02T10:04:55.245Z,1019.1
2017-06-02T10:05:57.956Z,1019.1
2017-06-02T10:07:01.364Z,1019
2017-06-02T10:09:07.239Z,1019
2017-06-02T10:10:09.944Z,1019
2017-06-02T10:11:13.161Z,1019
2017-06-02T10:12:16.001Z,1019
2017-06-02T10:13:19.357Z,1019
2017-06-02T10:14:22.235Z,1019.1
2017-06-02T10:15:24.923Z,1019.1
2017-06-02T10:16:28.136Z,1019.1
2017-06-02T10:17:31.348Z,1019.1
2017-06-02T10:18:34.063Z,1019.1
2017-06-02T10:19:37.168Z,1019
2017-06-02T10:20:40.010Z,1019
2017-06-02T10:22:46.275Z,1019.1
2017-06-02T10:23:49.120Z,1019.1
2017-06-02T10:24:52.217Z,1019.1
2017-06-02T10:25:55.064Z,1019
2017-06-02T10:26:57.911Z,1019.1
2017-06-02T10:28:01.125Z,1019.1
2017-06-02T10:29:04.020Z,1019
2017-06-02T10:30:07.063Z,1019.1
2017-06-02T10:31:09.774Z,1019
2017-06-02T10:32:13.133Z,1019.1
2017-06-02T10:33:15.979Z,1019
2017-06-02T10:34:18.823Z,1019
2017-06-02T10:35:22.296Z,1019
2017-06-02T10:36:24.640Z,1019
2017-06-02T10:37:27.992Z,1019
2017-06-02T10:38:30.707Z,1019
2017-06-02T10:39:34.060Z,1019
2017-06-02T10:40:37.161Z,1019
2017-06-02T10:41:39.911Z,1019
2017-06-02T10:42:42.758Z,1019
2017-06-02T10:43:45.837Z,1019
2017-06-02T10:44:48.682Z,1019
2017-06-02T10:45:52.151Z,1019
2017-06-02T10:46:54.863Z,1019
2017-06-02T10:47:57.711Z,1018.9
2017-06-02T10:49:00.555Z,1019
2017-06-02T10:50:03.404Z,1019
2017-06-02T10:51:06.874Z,1019
2017-06-02T10:52:09.451Z,1019
2017-06-02T10:53:12.670Z,1019
2017-06-02T10:54:15.519Z,1019
2017-06-02T10:55:18.468Z,1018.9
2017-06-02T10:56:21.561Z,1018.9
2017-06-02T10:57:24.411Z,1018.9
2017-06-02T10:58:27.267Z,1018.9
2017-06-02T10:59:30.487Z,1018.9
2017-06-02T11:00:33.194Z,1018.9
2017-06-02T11:01:36.296Z,1018.8
2017-06-02T11:02:39.142Z,1018.9
2017-06-02T11:03:41.990Z,1018.8
2017-06-02T11:04:45.346Z,1018.8
2017-06-02T11:06:51.365Z,1018.8
2017-06-02T11:07:54.214Z,1018.8
2017-06-02T11:09:59.975Z,1018.8
2017-06-02T11:11:02.688Z,1018.8
2017-06-02T11:12:06.291Z,1018.9
2017-06-02T11:13:09.002Z,1018.9
2017-06-02T11:14:11.721Z,1018.8
2017-06-02T11:15:14.569Z,1018.8
2017-06-02T11:17:21.082Z,1018.8
2017-06-02T11:18:23.792Z,1018.8
2017-06-02T11:19:26.636Z,1018.8
2017-06-02T11:20:29.353Z,1018.7
2017-06-02T11:21:32.709Z,1018.7
2017-06-02T11:22:35.805Z,1018.7
2017-06-02T11:23:38.652Z,1018.7
2017-06-02T11:24:41.230Z,1018.7
2017-06-02T11:25:44.449Z,1018.7
2017-06-02T11:26:47.300Z,1018.7
2017-06-02T11:27:50.502Z,1018.7
2017-06-02T11:28:53.352Z,1018.7
2017-06-02T11:29:56.202Z,1018.6
2017-06-02T11:30:59.050Z,1018.6
2017-06-02T11:32:02.270Z,1018.7
2017-06-02T11:33:05.374Z,1018.7
2017-06-02T11:34:08.091Z,1018.7
2017-06-02T11:35:11.172Z,1018.6
2017-06-02T11:36:14.014Z,1018.6
2017-06-02T11:37:16.862Z,1018.6
2017-06-02T11:38:20.330Z,1018.6
2017-06-02T11:39:23.039Z,1018.6
2017-06-02T11:40:25.752Z,1018.7
2017-06-02T11:41:28.603Z,1018.6
2017-06-02T11:42:31.816Z,1018.6
2017-06-02T11:43:34.911Z,1018.6
2017-06-02T11:44:37.757Z,1018.6
2017-06-02T11:45:40.598Z,1018.6
2017-06-02T11:46:43.443Z,1018.6
2017-06-02T11:47:46.652Z,1018.6
2017-06-02T11:48:49.988Z,1018.6
2017-06-02T11:51:58.527Z,1018.5
2017-06-02T11:53:01.238Z,1018.5
2017-06-02T11:54:04.339Z,1018.5
2017-06-02T11:55:07.187Z,1018.6
2017-06-02T11:56:10.402Z,1018.5
2017-06-02T11:57:13.246Z,1018.5
2017-06-02T11:58:16.093Z,1018.5
2017-06-02T11:59:19.558Z,1018.5
2017-06-02T12:00:21.899Z,1018.5
2017-06-02T12:01:25.252Z,1018.5
2017-06-02T12:02:27.964Z,1018.4
2017-06-02T12:03:30.812Z,1018.4
2017-06-02T12:04:34.277Z,1018.4
2017-06-02T12:05:36.618Z,1018.4
2017-06-02T12:06:39.966Z,1018.4
2017-06-02T12:07:42.541Z,1018.3
2017-06-02T12:08:45.663Z,1018.4
2017-06-02T12:09:49.131Z,1018.4
2017-06-02T12:10:51.841Z,1018.4
2017-06-02T12:11:54.438Z,1018.3
2017-06-02T12:12:57.655Z,1018.3
2017-06-02T12:14:00.535Z,1018.3
2017-06-02T12:15:03.636Z,1018.3
2017-06-02T12:16:06.216Z,1018.3
2017-06-02T12:17:09.436Z,1018.3
2017-06-02T12:18:12.283Z,1018.3
2017-06-02T12:19:15.495Z,1018.3
2017-06-02T12:20:18.693Z,1018.3
2017-06-02T12:21:21.035Z,1018.3
2017-06-02T12:22:24.384Z,1018.3
2017-06-02T12:23:27.227Z,1018.3
2017-06-02T12:24:30.070Z,1018.3
2017-06-02T12:25:33.229Z,1018.3
2017-06-02T12:26:36.072Z,1018.3
2017-06-02T12:27:38.917Z,1018.3
2017-06-02T12:28:41.769Z,1018.3
2017-06-02T12:29:45.120Z,1018.3
2017-06-02T12:30:48.223Z,1018.3
2017-06-02T12:31:50.951Z,1018.3
2017-06-02T12:32:53.853Z,1018.2
2017-06-02T12:33:56.696Z,1018.2
2017-06-02T12:34:59.544Z,1018.2
2017-06-02T12:36:03.146Z,1018.2
2017-06-02T12:37:05.493Z,1018.2
2017-06-02T12:38:08.844Z,1018.2
2017-06-02T12:40:14.601Z,1018.2
2017-06-02T12:41:17.698Z,1018.2
2017-06-02T12:42:20.276Z,1018.2
2017-06-02T12:43:23.631Z,1018.2
2017-06-02T12:44:26.245Z,1018.2
2017-06-02T12:45:29.463Z,1018.1
2017-06-02T12:46:32.425Z,1018.1
2017-06-02T12:47:35.328Z,1018.1
2017-06-02T12:48:38.103Z,1018.1
2017-06-02T12:49:41.453Z,1018.1
2017-06-02T12:50:44.301Z,1018
2017-06-02T12:51:47.444Z,1018
2017-06-02T12:52:50.287Z,1018
2017-06-02T12:53:53.141Z,1018.1
2017-06-02T12:54:55.997Z,1018.1
2017-06-02T12:55:58.837Z,1018
2017-06-02T12:57:02.165Z,1018.1
2017-06-02T12:58:05.063Z,1018.1
2017-06-02T12:59:07.769Z,1018
2017-06-02T13:00:11.126Z,1018
2017-06-02T13:01:13.839Z,1018
2017-06-02T13:02:16.934Z,1018
2017-06-02T13:03:19.644Z,1017.9
2017-06-02T13:04:22.856Z,1018
2017-06-02T13:05:25.700Z,1018
2017-06-02T13:06:28.910Z,1018
2017-06-02T13:07:32.002Z,1018
2017-06-02T13:08:34.708Z,1018
2017-06-02T13:09:37.549Z,1018
2017-06-02T13:10:40.761Z,1018
2017-06-02T13:11:43.473Z,1018
2017-06-02T13:12:46.939Z,1018
2017-06-02T13:13:49.283Z,1018
2017-06-02T13:14:52.631Z,1018
2017-06-02T13:15:55.471Z,1018
2017-06-02T13:16:58.550Z,1017.9
2017-06-02T13:18:01.509Z,1017.9
2017-06-02T13:19:04.219Z,1017.9
2017-06-02T13:20:07.438Z,1017.9
2017-06-02T13:21:10.149Z,1017.9
2017-06-02T13:22:13.365Z,1017.9
2017-06-02T13:23:16.511Z,1018
2017-06-02T13:25:22.269Z,1018
2017-06-02T13:26:25.122Z,1017.9
2017-06-02T13:27:27.969Z,1017.9
2017-06-02T13:28:31.436Z,1017.9
2017-06-02T13:29:33.779Z,1017.9
2017-06-02T13:30:36.994Z,1017.9
2017-06-02T13:31:39.840Z,1017.9
2017-06-02T13:32:42.685Z,1017.9
2017-06-02T13:33:46.289Z,1017.8
2017-06-02T13:34:48.627Z,1017.8
2017-06-02T13:35:51.978Z,1017.8
2017-06-02T13:36:54.819Z,1017.9
2017-06-02T13:37:57.898Z,1017.8